sensor_id;sensor_type;location;lat;lon;timestamp;P1;durP1;ratioP1;P2;durP2;ratioP2
70825;SDS011;58446;41.490;22.098;2023-12-20T00:00:16;173.52;;;87.93;;
70825;SDS011;58446;41.490;22.098;2023-12-20T00:02:43;146.35;;;75.32;;
70825;SDS011;58446;41.490;22.098;2023-12-20T00:05:13;171.77;;;86.07;;
70825;SDS011;58446;41.490;22.098;2023-12-20T00:07:40;154.67;;;79.97;;
70825;SDS011;58446;41.490;22.098;2023-12-20T00:10:08;152.25;;;77.15;;
70825;SDS011;58446;41.490;22.098;2023-12-20T00:12:42;147.88;;;75.45;;
70825;SDS011;58446;41.490;22.098;2023-12-20T00:15:12;147.52;;;75.75;;
70825;SDS011;58446;41.490;22.098;2023-12-20T00:17:39;138.98;;;73.45;;
70825;SDS011;58446;41.490;22.098;2023-12-20T00:20:06;132.43;;;70.70;;
70825;SDS011;58446;41.490;22.098;2023-12-20T00:22:38;140.30;;;70.35;;
70825;SDS011;58446;41.490;22.098;2023-12-20T00:25:06;133.00;;;66.93;;
70825;SDS011;58446;41.490;22.098;2023-12-20T00:27:34;146.60;;;73.30;;
70825;SDS011;58446;41.490;22.098;2023-12-20T00:30:00;137.07;;;70.73;;
70825;SDS011;58446;41.490;22.098;2023-12-20T00:32:26;151.07;;;75.93;;
70825;SDS011;58446;41.490;22.098;2023-12-20T00:34:52;138.53;;;72.63;;
70825;SDS011;58446;41.490;22.098;2023-12-20T00:37:17;131.13;;;69.40;;
70825;SDS011;58446;41.490;22.098;2023-12-20T00:39:43;137.68;;;70.20;;
70825;SDS011;58446;41.490;22.098;2023-12-20T00:42:09;169.90;;;83.67;;
70825;SDS011;58446;41.490;22.098;2023-12-20T00:44:34;148.95;;;74.93;;
70825;SDS011;58446;41.490;22.098;2023-12-20T00:47:00;144.87;;;75.37;;
70825;SDS011;58446;41.490;22.098;2023-12-20T00:49:26;150.98;;;80.53;;
70825;SDS011;58446;41.490;22.098;2023-12-20T00:51:52;148.68;;;77.55;;
70825;SDS011;58446;41.490;22.098;2023-12-20T00:54:18;137.63;;;71.57;;
70825;SDS011;58446;41.490;22.098;2023-12-20T00:56:44;129.05;;;67.93;;
70825;SDS011;58446;41.490;22.098;2023-12-20T00:59:09;119.20;;;60.33;;
70825;SDS011;58446;41.490;22.098;2023-12-20T01:01:35;101.77;;;56.27;;
70825;SDS011;58446;41.490;22.098;2023-12-20T01:04:01;101.93;;;55.30;;
70825;SDS011;58446;41.490;22.098;2023-12-20T01:06:27;107.90;;;56.05;;
70825;SDS011;58446;41.490;22.098;2023-12-20T01:08:53;101.73;;;55.43;;
70825;SDS011;58446;41.490;22.098;2023-12-20T01:11:19;96.32;;;52.53;;
70825;SDS011;58446;41.490;22.098;2023-12-20T01:13:44;90.07;;;49.83;;
70825;SDS011;58446;41.490;22.098;2023-12-20T01:16:10;92.68;;;49.60;;
70825;SDS011;58446;41.490;22.098;2023-12-20T01:18:37;90.72;;;49.47;;
70825;SDS011;58446;41.490;22.098;2023-12-20T01:21:04;79.83;;;48.17;;
70825;SDS011;58446;41.490;22.098;2023-12-20T01:23:30;87.03;;;48.30;;
70825;SDS011;58446;41.490;22.098;2023-12-20T01:25:57;85.13;;;48.13;;
70825;SDS011;58446;41.490;22.098;2023-12-20T01:28:25;92.20;;;50.92;;
70825;SDS011;58446;41.490;22.098;2023-12-20T01:30:51;88.22;;;50.22;;
70825;SDS011;58446;41.490;22.098;2023-12-20T01:33:16;89.80;;;48.53;;
70825;SDS011;58446;41.490;22.098;2023-12-20T01:35:42;85.88;;;49.50;;
70825;SDS011;58446;41.490;22.098;2023-12-20T01:38:08;97.87;;;51.77;;
70825;SDS011;58446;41.490;22.098;2023-12-20T01:40:34;91.18;;;51.90;;
70825;SDS011;58446;41.490;22.098;2023-12-20T01:43:01;84.43;;;48.03;;
70825;SDS011;58446;41.490;22.098;2023-12-20T01:45:33;91.50;;;47.05;;
70825;SDS011;58446;41.490;22.098;2023-12-20T01:48:00;91.50;;;50.07;;
70825;SDS011;58446;41.490;22.098;2023-12-20T01:50:28;84.45;;;48.05;;
70825;SDS011;58446;41.490;22.098;2023-12-20T01:52:55;98.68;;;51.63;;
70825;SDS011;58446;41.490;22.098;2023-12-20T01:55:23;115.88;;;59.20;;
70825;SDS011;58446;41.490;22.098;2023-12-20T01:57:49;89.07;;;47.97;;
70825;SDS011;58446;41.490;22.098;2023-12-20T02:00:16;90.57;;;48.73;;
70825;SDS011;58446;41.490;22.098;2023-12-20T02:02:43;90.82;;;51.35;;
70825;SDS011;58446;41.490;22.098;2023-12-20T02:05:10;86.68;;;46.38;;
70825;SDS011;58446;41.490;22.098;2023-12-20T02:07:37;88.90;;;46.92;;
70825;SDS011;58446;41.490;22.098;2023-12-20T02:10:03;82.57;;;46.03;;
70825;SDS011;58446;41.490;22.098;2023-12-20T02:12:29;72.13;;;40.45;;
70825;SDS011;58446;41.490;22.098;2023-12-20T02:14:55;73.05;;;42.50;;
70825;SDS011;58446;41.490;22.098;2023-12-20T02:17:21;72.15;;;39.55;;
70825;SDS011;58446;41.490;22.098;2023-12-20T02:19:49;67.25;;;37.70;;
70825;SDS011;58446;41.490;22.098;2023-12-20T02:22:15;64.97;;;36.70;;
70825;SDS011;58446;41.490;22.098;2023-12-20T02:24:41;60.25;;;34.20;;
70825;SDS011;58446;41.490;22.098;2023-12-20T02:27:07;59.33;;;32.90;;
70825;SDS011;58446;41.490;22.098;2023-12-20T02:29:34;60.58;;;32.38;;
70825;SDS011;58446;41.490;22.098;2023-12-20T02:32:09;56.47;;;32.17;;
70825;SDS011;58446;41.490;22.098;2023-12-20T02:34:39;63.60;;;35.13;;
70825;SDS011;58446;41.490;22.098;2023-12-20T02:37:06;56.30;;;31.67;;
70825;SDS011;58446;41.490;22.098;2023-12-20T02:39:34;58.63;;;33.00;;
70825;SDS011;58446;41.490;22.098;2023-12-20T02:42:01;58.80;;;30.77;;
70825;SDS011;58446;41.490;22.098;2023-12-20T02:44:27;56.40;;;31.83;;
70825;SDS011;58446;41.490;22.098;2023-12-20T02:46:52;56.42;;;33.17;;
70825;SDS011;58446;41.490;22.098;2023-12-20T02:49:18;53.60;;;31.70;;
70825;SDS011;58446;41.490;22.098;2023-12-20T02:51:44;60.08;;;33.58;;
70825;SDS011;58446;41.490;22.098;2023-12-20T02:54:10;76.20;;;39.57;;
70825;SDS011;58446;41.490;22.098;2023-12-20T02:56:35;62.30;;;34.05;;
70825;SDS011;58446;41.490;22.098;2023-12-20T02:59:01;69.70;;;38.07;;
70825;SDS011;58446;41.490;22.098;2023-12-20T03:01:28;72.30;;;37.55;;
70825;SDS011;58446;41.490;22.098;2023-12-20T03:03:54;72.93;;;36.95;;
70825;SDS011;58446;41.490;22.098;2023-12-20T03:06:20;77.72;;;39.65;;
70825;SDS011;58446;41.490;22.098;2023-12-20T03:08:46;73.80;;;37.17;;
70825;SDS011;58446;41.490;22.098;2023-12-20T03:11:12;79.30;;;40.08;;
70825;SDS011;58446;41.490;22.098;2023-12-20T03:13:37;81.67;;;42.50;;
70825;SDS011;58446;41.490;22.098;2023-12-20T03:16:13;80.38;;;39.80;;
70825;SDS011;58446;41.490;22.098;2023-12-20T03:18:39;83.05;;;39.08;;
70825;SDS011;58446;41.490;22.098;2023-12-20T03:21:05;78.57;;;40.17;;
70825;SDS011;58446;41.490;22.098;2023-12-20T03:23:31;83.07;;;41.95;;
70825;SDS011;58446;41.490;22.098;2023-12-20T03:25:59;75.85;;;39.22;;
70825;SDS011;58446;41.490;22.098;2023-12-20T03:28:29;75.45;;;35.85;;
70825;SDS011;58446;41.490;22.098;2023-12-20T03:30:55;72.32;;;35.47;;
70825;SDS011;58446;41.490;22.098;2023-12-20T03:33:21;66.53;;;35.63;;
70825;SDS011;58446;41.490;22.098;2023-12-20T03:35:47;66.05;;;34.72;;
70825;SDS011;58446;41.490;22.098;2023-12-20T03:38:12;67.20;;;33.83;;
70825;SDS011;58446;41.490;22.098;2023-12-20T03:40:38;68.93;;;33.17;;
70825;SDS011;58446;41.490;22.098;2023-12-20T03:43:04;58.22;;;33.88;;
70825;SDS011;58446;41.490;22.098;2023-12-20T03:45:30;62.50;;;32.90;;
70825;SDS011;58446;41.490;22.098;2023-12-20T03:47:56;57.72;;;32.78;;
70825;SDS011;58446;41.490;22.098;2023-12-20T03:50:22;57.60;;;32.22;;
70825;SDS011;58446;41.490;22.098;2023-12-20T03:52:48;59.73;;;32.90;;
70825;SDS011;58446;41.490;22.098;2023-12-20T03:55:14;64.25;;;32.90;;
70825;SDS011;58446;41.490;22.098;2023-12-20T03:57:41;59.00;;;32.00;;
70825;SDS011;58446;41.490;22.098;2023-12-20T04:00:07;73.57;;;35.55;;
70825;SDS011;58446;41.490;22.098;2023-12-20T04:02:39;69.57;;;34.87;;
70825;SDS011;58446;41.490;22.098;2023-12-20T04:05:06;66.50;;;35.45;;
70825;SDS011;58446;41.490;22.098;2023-12-20T04:07:32;63.90;;;31.55;;
70825;SDS011;58446;41.490;22.098;2023-12-20T04:09:58;64.83;;;34.50;;
70825;SDS011;58446;41.490;22.098;2023-12-20T04:12:24;64.65;;;35.22;;
70825;SDS011;58446;41.490;22.098;2023-12-20T04:14:49;62.60;;;34.55;;
70825;SDS011;58446;41.490;22.098;2023-12-20T04:17:15;69.07;;;35.27;;
70825;SDS011;58446;41.490;22.098;2023-12-20T04:19:42;66.05;;;36.03;;
70825;SDS011;58446;41.490;22.098;2023-12-20T04:22:10;64.70;;;34.15;;
70825;SDS011;58446;41.490;22.098;2023-12-20T04:24:36;64.60;;;35.43;;
70825;SDS011;58446;41.490;22.098;2023-12-20T04:27:02;65.03;;;35.35;;
70825;SDS011;58446;41.490;22.098;2023-12-20T04:29:28;66.90;;;35.80;;
70825;SDS011;58446;41.490;22.098;2023-12-20T04:31:54;64.50;;;33.77;;
70825;SDS011;58446;41.490;22.098;2023-12-20T04:34:20;66.17;;;34.47;;
70825;SDS011;58446;41.490;22.098;2023-12-20T04:36:47;66.93;;;36.90;;
70825;SDS011;58446;41.490;22.098;2023-12-20T04:39:13;82.00;;;38.67;;
70825;SDS011;58446;41.490;22.098;2023-12-20T04:41:40;72.00;;;39.20;;
70825;SDS011;58446;41.490;22.098;2023-12-20T04:44:06;78.45;;;37.67;;
70825;SDS011;58446;41.490;22.098;2023-12-20T04:46:32;73.85;;;39.17;;
70825;SDS011;58446;41.490;22.098;2023-12-20T04:48:58;76.10;;;39.47;;
70825;SDS011;58446;41.490;22.098;2023-12-20T04:51:23;75.07;;;38.85;;
70825;SDS011;58446;41.490;22.098;2023-12-20T04:53:49;72.07;;;38.83;;
70825;SDS011;58446;41.490;22.098;2023-12-20T04:56:15;72.23;;;38.20;;
70825;SDS011;58446;41.490;22.098;2023-12-20T04:58:42;70.68;;;39.05;;
70825;SDS011;58446;41.490;22.098;2023-12-20T05:01:08;72.32;;;40.05;;
70825;SDS011;58446;41.490;22.098;2023-12-20T05:03:34;73.10;;;38.60;;
70825;SDS011;58446;41.490;22.098;2023-12-20T05:06:00;74.10;;;38.35;;
70825;SDS011;58446;41.490;22.098;2023-12-20T05:08:26;73.68;;;38.28;;
70825;SDS011;58446;41.490;22.098;2023-12-20T05:10:53;79.83;;;37.53;;
70825;SDS011;58446;41.490;22.098;2023-12-20T05:13:19;74.00;;;38.60;;
70825;SDS011;58446;41.490;22.098;2023-12-20T05:15:45;62.53;;;34.50;;
70825;SDS011;58446;41.490;22.098;2023-12-20T05:18:11;69.65;;;37.40;;
70825;SDS011;58446;41.490;22.098;2023-12-20T05:20:38;70.55;;;34.35;;
70825;SDS011;58446;41.490;22.098;2023-12-20T05:23:03;60.33;;;33.45;;
70825;SDS011;58446;41.490;22.098;2023-12-20T05:25:29;65.40;;;33.50;;
70825;SDS011;58446;41.490;22.098;2023-12-20T05:27:55;64.00;;;32.47;;
70825;SDS011;58446;41.490;22.098;2023-12-20T05:30:21;73.03;;;37.50;;
70825;SDS011;58446;41.490;22.098;2023-12-20T05:32:46;66.03;;;36.33;;
70825;SDS011;58446;41.490;22.098;2023-12-20T05:35:12;59.33;;;32.10;;
70825;SDS011;58446;41.490;22.098;2023-12-20T05:37:38;63.20;;;32.13;;
70825;SDS011;58446;41.490;22.098;2023-12-20T05:40:03;57.67;;;29.97;;
70825;SDS011;58446;41.490;22.098;2023-12-20T05:42:29;57.13;;;27.88;;
70825;SDS011;58446;41.490;22.098;2023-12-20T05:44:55;55.43;;;28.20;;
70825;SDS011;58446;41.490;22.098;2023-12-20T05:47:21;55.83;;;28.80;;
70825;SDS011;58446;41.490;22.098;2023-12-20T05:49:47;51.23;;;25.17;;
70825;SDS011;58446;41.490;22.098;2023-12-20T05:52:12;53.47;;;25.98;;
70825;SDS011;58446;41.490;22.098;2023-12-20T05:54:38;52.03;;;24.53;;
70825;SDS011;58446;41.490;22.098;2023-12-20T05:57:04;41.95;;;22.88;;
70825;SDS011;58446;41.490;22.098;2023-12-20T05:59:29;58.63;;;24.60;;
70825;SDS011;58446;41.490;22.098;2023-12-20T06:01:55;49.30;;;23.92;;
70825;SDS011;58446;41.490;22.098;2023-12-20T06:04:21;56.93;;;26.63;;
70825;SDS011;58446;41.490;22.098;2023-12-20T06:06:46;103.55;;;28.30;;
70825;SDS011;58446;41.490;22.098;2023-12-20T06:09:12;99.37;;;29.60;;
70825;SDS011;58446;41.490;22.098;2023-12-20T06:11:38;70.37;;;27.30;;
70825;SDS011;58446;41.490;22.098;2023-12-20T06:14:03;68.80;;;23.77;;
70825;SDS011;58446;41.490;22.098;2023-12-20T06:16:29;54.30;;;22.83;;
70825;SDS011;58446;41.490;22.098;2023-12-20T06:18:54;53.00;;;23.85;;
70825;SDS011;58446;41.490;22.098;2023-12-20T06:21:20;48.53;;;25.63;;
70825;SDS011;58446;41.490;22.098;2023-12-20T06:23:46;40.83;;;23.50;;
70825;SDS011;58446;41.490;22.098;2023-12-20T06:26:12;78.30;;;27.73;;
70825;SDS011;58446;41.490;22.098;2023-12-20T06:28:37;43.63;;;22.63;;
70825;SDS011;58446;41.490;22.098;2023-12-20T06:31:03;40.67;;;22.97;;
70825;SDS011;58446;41.490;22.098;2023-12-20T06:33:29;71.03;;;28.00;;
70825;SDS011;58446;41.490;22.098;2023-12-20T06:36:00;52.45;;;25.63;;
70825;SDS011;58446;41.490;22.098;2023-12-20T06:38:26;48.63;;;25.23;;
70825;SDS011;58446;41.490;22.098;2023-12-20T06:40:52;52.03;;;25.90;;
70825;SDS011;58446;41.490;22.098;2023-12-20T06:43:17;67.30;;;33.00;;
70825;SDS011;58446;41.490;22.098;2023-12-20T06:45:43;109.77;;;48.03;;
70825;SDS011;58446;41.490;22.098;2023-12-20T06:48:08;67.05;;;35.42;;
70825;SDS011;58446;41.490;22.098;2023-12-20T06:50:36;73.20;;;36.63;;
70825;SDS011;58446;41.490;22.098;2023-12-20T06:53:05;83.53;;;41.33;;
70825;SDS011;58446;41.490;22.098;2023-12-20T06:55:32;88.53;;;43.70;;
70825;SDS011;58446;41.490;22.098;2023-12-20T06:58:00;90.30;;;44.83;;
70825;SDS011;58446;41.490;22.098;2023-12-20T07:00:26;95.25;;;45.70;;
70825;SDS011;58446;41.490;22.098;2023-12-20T07:02:52;94.70;;;46.17;;
70825;SDS011;58446;41.490;22.098;2023-12-20T07:05:18;97.60;;;46.75;;
70825;SDS011;58446;41.490;22.098;2023-12-20T07:07:45;104.45;;;48.58;;
70825;SDS011;58446;41.490;22.098;2023-12-20T07:10:12;95.13;;;47.47;;
70825;SDS011;58446;41.490;22.098;2023-12-20T07:12:38;97.18;;;47.42;;
70825;SDS011;58446;41.490;22.098;2023-12-20T07:15:04;95.47;;;48.57;;
70825;SDS011;58446;41.490;22.098;2023-12-20T07:17:31;90.57;;;45.00;;
70825;SDS011;58446;41.490;22.098;2023-12-20T07:19:58;98.82;;;44.90;;
70825;SDS011;58446;41.490;22.098;2023-12-20T07:22:24;92.72;;;43.00;;
70825;SDS011;58446;41.490;22.098;2023-12-20T07:24:49;85.90;;;42.03;;
70825;SDS011;58446;41.490;22.098;2023-12-20T07:27:17;89.63;;;43.28;;
70825;SDS011;58446;41.490;22.098;2023-12-20T07:29:43;80.22;;;34.28;;
70825;SDS011;58446;41.490;22.098;2023-12-20T07:32:09;59.93;;;31.47;;
70825;SDS011;58446;41.490;22.098;2023-12-20T07:34:34;67.43;;;30.35;;
70825;SDS011;58446;41.490;22.098;2023-12-20T07:37:00;70.53;;;36.07;;
70825;SDS011;58446;41.490;22.098;2023-12-20T07:39:26;68.00;;;33.80;;
70825;SDS011;58446;41.490;22.098;2023-12-20T07:41:51;72.23;;;33.77;;
70825;SDS011;58446;41.490;22.098;2023-12-20T07:44:17;69.33;;;33.30;;
70825;SDS011;58446;41.490;22.098;2023-12-20T07:46:43;64.20;;;30.47;;
70825;SDS011;58446;41.490;22.098;2023-12-20T07:49:08;63.47;;;30.20;;
70825;SDS011;58446;41.490;22.098;2023-12-20T07:51:35;52.38;;;25.60;;
70825;SDS011;58446;41.490;22.098;2023-12-20T07:54:00;52.97;;;22.83;;
70825;SDS011;58446;41.490;22.098;2023-12-20T07:56:26;49.73;;;28.23;;
70825;SDS011;58446;41.490;22.098;2023-12-20T07:58:52;68.30;;;32.23;;
70825;SDS011;58446;41.490;22.098;2023-12-20T08:01:17;45.90;;;25.93;;
70825;SDS011;58446;41.490;22.098;2023-12-20T08:03:43;52.03;;;23.63;;
70825;SDS011;58446;41.490;22.098;2023-12-20T08:06:09;47.73;;;25.30;;
70825;SDS011;58446;41.490;22.098;2023-12-20T08:08:35;84.25;;;34.45;;
70825;SDS011;58446;41.490;22.098;2023-12-20T08:11:00;54.10;;;27.30;;
70825;SDS011;58446;41.490;22.098;2023-12-20T08:13:27;57.28;;;29.08;;
70825;SDS011;58446;41.490;22.098;2023-12-20T08:15:53;62.03;;;30.98;;
70825;SDS011;58446;41.490;22.098;2023-12-20T08:18:19;56.57;;;29.67;;
70825;SDS011;58446;41.490;22.098;2023-12-20T08:20:45;79.70;;;42.42;;
70825;SDS011;58446;41.490;22.098;2023-12-20T08:23:12;60.15;;;32.63;;
70825;SDS011;58446;41.490;22.098;2023-12-20T08:25:37;58.47;;;32.33;;
70825;SDS011;58446;41.490;22.098;2023-12-20T08:28:03;111.22;;;51.85;;
70825;SDS011;58446;41.490;22.098;2023-12-20T08:30:29;70.53;;;38.90;;
70825;SDS011;58446;41.490;22.098;2023-12-20T08:32:56;85.00;;;42.40;;
70825;SDS011;58446;41.490;22.098;2023-12-20T08:35:22;71.47;;;37.00;;
70825;SDS011;58446;41.490;22.098;2023-12-20T08:37:49;78.78;;;41.65;;
70825;SDS011;58446;41.490;22.098;2023-12-20T08:40:14;75.33;;;38.30;;
70825;SDS011;58446;41.490;22.098;2023-12-20T08:42:40;129.32;;;56.65;;
70825;SDS011;58446;41.490;22.098;2023-12-20T08:45:06;143.50;;;66.83;;
70825;SDS011;58446;41.490;22.098;2023-12-20T08:47:32;93.53;;;45.75;;
70825;SDS011;58446;41.490;22.098;2023-12-20T08:49:58;135.02;;;62.03;;
70825;SDS011;58446;41.490;22.098;2023-12-20T08:52:25;97.33;;;48.97;;
70825;SDS011;58446;41.490;22.098;2023-12-20T08:54:52;171.10;;;76.15;;
70825;SDS011;58446;41.490;22.098;2023-12-20T08:57:21;173.35;;;76.70;;
70825;SDS011;58446;41.490;22.098;2023-12-20T08:59:49;167.18;;;74.88;;
70825;SDS011;58446;41.490;22.098;2023-12-20T09:02:16;199.98;;;86.72;;
70825;SDS011;58446;41.490;22.098;2023-12-20T09:04:42;146.67;;;66.53;;
70825;SDS011;58446;41.490;22.098;2023-12-20T09:07:30;320.60;;;137.55;;
70825;SDS011;58446;41.490;22.098;2023-12-20T09:09:57;140.23;;;67.97;;
70825;SDS011;58446;41.490;22.098;2023-12-20T09:12:23;146.90;;;64.00;;
70825;SDS011;58446;41.490;22.098;2023-12-20T09:14:50;130.05;;;60.72;;
70825;SDS011;58446;41.490;22.098;2023-12-20T09:17:17;143.93;;;64.23;;
70825;SDS011;58446;41.490;22.098;2023-12-20T09:19:44;151.05;;;63.47;;
70825;SDS011;58446;41.490;22.098;2023-12-20T09:22:10;138.48;;;63.80;;
70825;SDS011;58446;41.490;22.098;2023-12-20T09:24:36;138.55;;;63.53;;
70825;SDS011;58446;41.490;22.098;2023-12-20T09:27:02;118.65;;;53.75;;
70825;SDS011;58446;41.490;22.098;2023-12-20T09:29:29;124.40;;;56.73;;
70825;SDS011;58446;41.490;22.098;2023-12-20T09:31:54;110.45;;;50.95;;
70825;SDS011;58446;41.490;22.098;2023-12-20T09:34:20;107.60;;;52.80;;
70825;SDS011;58446;41.490;22.098;2023-12-20T09:36:47;101.10;;;48.22;;
70825;SDS011;58446;41.490;22.098;2023-12-20T09:39:16;104.53;;;51.13;;
70825;SDS011;58446;41.490;22.098;2023-12-20T09:44:33;92.60;;;42.38;;
70825;SDS011;58446;41.490;22.098;2023-12-20T09:47:07;77.93;;;39.88;;
70825;SDS011;58446;41.490;22.098;2023-12-20T09:49:34;77.60;;;38.53;;
70825;SDS011;58446;41.490;22.098;2023-12-20T09:52:04;81.45;;;35.65;;
70825;SDS011;58446;41.490;22.098;2023-12-20T09:54:33;77.63;;;34.42;;
70825;SDS011;58446;41.490;22.098;2023-12-20T09:56:59;64.70;;;33.22;;
70825;SDS011;58446;41.490;22.098;2023-12-20T09:59:24;73.10;;;36.33;;
70825;SDS011;58446;41.490;22.098;2023-12-20T10:01:50;62.27;;;30.60;;
70825;SDS011;58446;41.490;22.098;2023-12-20T10:04:18;61.13;;;32.65;;
70825;SDS011;58446;41.490;22.098;2023-12-20T10:06:45;67.30;;;34.00;;
70825;SDS011;58446;41.490;22.098;2023-12-20T10:09:12;67.45;;;32.58;;
70825;SDS011;58446;41.490;22.098;2023-12-20T10:11:38;66.07;;;31.73;;
70825;SDS011;58446;41.490;22.098;2023-12-20T10:14:05;80.65;;;31.10;;
70825;SDS011;58446;41.490;22.098;2023-12-20T10:16:32;65.50;;;31.30;;
70825;SDS011;58446;41.490;22.098;2023-12-20T10:18:59;72.10;;;35.58;;
70825;SDS011;58446;41.490;22.098;2023-12-20T10:21:29;62.13;;;33.20;;
70825;SDS011;58446;41.490;22.098;2023-12-20T10:23:55;84.50;;;37.90;;
70825;SDS011;58446;41.490;22.098;2023-12-20T10:26:23;90.90;;;45.70;;
70825;SDS011;58446;41.490;22.098;2023-12-20T10:28:55;85.10;;;41.20;;
70825;SDS011;58446;41.490;22.098;2023-12-20T10:31:31;66.25;;;35.05;;
70825;SDS011;58446;41.490;22.098;2023-12-20T10:33:59;82.18;;;39.72;;
70825;SDS011;58446;41.490;22.098;2023-12-20T10:36:29;68.70;;;34.13;;
70825;SDS011;58446;41.490;22.098;2023-12-20T10:38:56;67.22;;;33.92;;
70825;SDS011;58446;41.490;22.098;2023-12-20T10:41:26;60.63;;;30.50;;
70825;SDS011;58446;41.490;22.098;2023-12-20T10:44:01;62.30;;;30.35;;
70825;SDS011;58446;41.490;22.098;2023-12-20T10:46:30;56.58;;;27.73;;
70825;SDS011;58446;41.490;22.098;2023-12-20T10:49:01;49.23;;;25.63;;
70825;SDS011;58446;41.490;22.098;2023-12-20T10:51:28;58.35;;;29.98;;
70825;SDS011;58446;41.490;22.098;2023-12-20T10:53:56;55.53;;;28.45;;
70825;SDS011;58446;41.490;22.098;2023-12-20T10:56:22;54.63;;;28.20;;
70825;SDS011;58446;41.490;22.098;2023-12-20T10:58:51;53.45;;;28.42;;
70825;SDS011;58446;41.490;22.098;2023-12-20T11:01:17;53.88;;;27.80;;
70825;SDS011;58446;41.490;22.098;2023-12-20T11:03:49;51.30;;;27.35;;
70825;SDS011;58446;41.490;22.098;2023-12-20T11:06:19;55.38;;;29.55;;
70825;SDS011;58446;41.490;22.098;2023-12-20T11:09:22;67.17;;;32.07;;
70825;SDS011;58446;41.490;22.098;2023-12-20T11:17:08;46.20;;;24.30;;
70825;SDS011;58446;41.490;22.098;2023-12-20T11:19:43;50.67;;;26.88;;
70825;SDS011;58446;41.490;22.098;2023-12-20T11:22:21;46.23;;;25.03;;
70825;SDS011;58446;41.490;22.098;2023-12-20T11:24:47;47.33;;;26.10;;
70825;SDS011;58446;41.490;22.098;2023-12-20T11:27:19;47.05;;;25.80;;
70825;SDS011;58446;41.490;22.098;2023-12-20T11:29:51;39.30;;;21.52;;
70825;SDS011;58446;41.490;22.098;2023-12-20T11:34:59;50.33;;;26.37;;
70825;SDS011;58446;41.490;22.098;2023-12-20T11:37:29;47.08;;;26.20;;
70825;SDS011;58446;41.490;22.098;2023-12-20T11:40:00;50.80;;;27.13;;
70825;SDS011;58446;41.490;22.098;2023-12-20T11:42:32;47.78;;;25.38;;
70825;SDS011;58446;41.490;22.098;2023-12-20T11:45:02;43.22;;;25.42;;
70825;SDS011;58446;41.490;22.098;2023-12-20T11:47:29;47.77;;;26.80;;
70825;SDS011;58446;41.490;22.098;2023-12-20T11:49:56;50.28;;;26.92;;
70825;SDS011;58446;41.490;22.098;2023-12-20T11:52:22;42.80;;;25.15;;
70825;SDS011;58446;41.490;22.098;2023-12-20T11:54:47;48.27;;;25.80;;
70825;SDS011;58446;41.490;22.098;2023-12-20T11:57:13;49.13;;;25.40;;
70825;SDS011;58446;41.490;22.098;2023-12-20T11:59:39;42.05;;;24.65;;
70825;SDS011;58446;41.490;22.098;2023-12-20T12:02:05;42.80;;;23.70;;
70825;SDS011;58446;41.490;22.098;2023-12-20T12:04:31;46.75;;;24.67;;
70825;SDS011;58446;41.490;22.098;2023-12-20T12:06:57;45.80;;;24.67;;
70825;SDS011;58446;41.490;22.098;2023-12-20T12:09:23;41.03;;;23.70;;
70825;SDS011;58446;41.490;22.098;2023-12-20T12:11:50;44.15;;;22.30;;
70825;SDS011;58446;41.490;22.098;2023-12-20T12:14:18;72.53;;;39.17;;
70825;SDS011;58446;41.490;22.098;2023-12-20T12:16:45;47.63;;;27.25;;
70825;SDS011;58446;41.490;22.098;2023-12-20T12:19:24;47.53;;;26.40;;
70825;SDS011;58446;41.490;22.098;2023-12-20T12:22:12;39.23;;;23.93;;
70825;SDS011;58446;41.490;22.098;2023-12-20T12:24:52;41.25;;;23.67;;
70825;SDS011;58446;41.490;22.098;2023-12-20T12:27:19;42.20;;;23.88;;
70825;SDS011;58446;41.490;22.098;2023-12-20T12:30:00;51.43;;;26.57;;
70825;SDS011;58446;41.490;22.098;2023-12-20T12:32:28;41.78;;;24.95;;
70825;SDS011;58446;41.490;22.098;2023-12-20T12:34:54;38.47;;;22.60;;
70825;SDS011;58446;41.490;22.098;2023-12-20T12:37:20;40.63;;;23.63;;
70825;SDS011;58446;41.490;22.098;2023-12-20T12:39:49;33.35;;;20.85;;
70825;SDS011;58446;41.490;22.098;2023-12-20T12:42:14;35.83;;;22.50;;
70825;SDS011;58446;41.490;22.098;2023-12-20T12:44:40;40.38;;;23.70;;
70825;SDS011;58446;41.490;22.098;2023-12-20T12:47:06;36.53;;;20.90;;
70825;SDS011;58446;41.490;22.098;2023-12-20T12:49:33;38.60;;;21.38;;
70825;SDS011;58446;41.490;22.098;2023-12-20T12:51:58;39.40;;;22.17;;
70825;SDS011;58446;41.490;22.098;2023-12-20T12:54:24;40.10;;;23.00;;
70825;SDS011;58446;41.490;22.098;2023-12-20T12:56:50;37.75;;;23.30;;
70825;SDS011;58446;41.490;22.098;2023-12-20T12:59:18;39.20;;;22.33;;
70825;SDS011;58446;41.490;22.098;2023-12-20T13:01:43;35.28;;;21.02;;
70825;SDS011;58446;41.490;22.098;2023-12-20T13:04:09;38.20;;;23.53;;
70825;SDS011;58446;41.490;22.098;2023-12-20T13:06:38;33.90;;;22.52;;
70825;SDS011;58446;41.490;22.098;2023-12-20T13:09:06;39.70;;;23.88;;
70825;SDS011;58446;41.490;22.098;2023-12-20T13:11:33;41.80;;;23.57;;
70825;SDS011;58446;41.490;22.098;2023-12-20T13:13:59;35.78;;;22.40;;
70825;SDS011;58446;41.490;22.098;2023-12-20T13:16:25;35.65;;;22.48;;
70825;SDS011;58446;41.490;22.098;2023-12-20T13:18:50;35.40;;;21.70;;
70825;SDS011;58446;41.490;22.098;2023-12-20T13:21:16;38.30;;;24.38;;
70825;SDS011;58446;41.490;22.098;2023-12-20T13:23:42;33.77;;;20.43;;
70825;SDS011;58446;41.490;22.098;2023-12-20T13:26:08;30.67;;;18.08;;
70825;SDS011;58446;41.490;22.098;2023-12-20T13:28:33;33.07;;;18.57;;
70825;SDS011;58446;41.490;22.098;2023-12-20T13:30:59;33.47;;;22.42;;
70825;SDS011;58446;41.490;22.098;2023-12-20T13:33:25;26.63;;;17.87;;
70825;SDS011;58446;41.490;22.098;2023-12-20T13:35:51;31.65;;;19.55;;
70825;SDS011;58446;41.490;22.098;2023-12-20T13:38:16;29.38;;;17.80;;
70825;SDS011;58446;41.490;22.098;2023-12-20T13:40:42;28.03;;;17.90;;
70825;SDS011;58446;41.490;22.098;2023-12-20T13:43:08;27.23;;;17.35;;
70825;SDS011;58446;41.490;22.098;2023-12-20T13:45:36;27.42;;;17.45;;
70825;SDS011;58446;41.490;22.098;2023-12-20T13:48:01;23.30;;;15.23;;
70825;SDS011;58446;41.490;22.098;2023-12-20T13:50:27;26.55;;;16.63;;
70825;SDS011;58446;41.490;22.098;2023-12-20T13:52:53;25.77;;;16.27;;
70825;SDS011;58446;41.490;22.098;2023-12-20T13:55:18;27.17;;;16.27;;
70825;SDS011;58446;41.490;22.098;2023-12-20T13:57:47;27.40;;;16.00;;
70825;SDS011;58446;41.490;22.098;2023-12-20T14:00:13;25.67;;;16.37;;
70825;SDS011;58446;41.490;22.098;2023-12-20T14:02:40;28.40;;;17.88;;
70825;SDS011;58446;41.490;22.098;2023-12-20T14:05:08;23.35;;;15.25;;
70825;SDS011;58446;41.490;22.098;2023-12-20T14:07:34;22.83;;;14.45;;
70825;SDS011;58446;41.490;22.098;2023-12-20T14:10:00;24.87;;;15.63;;
70825;SDS011;58446;41.490;22.098;2023-12-20T14:12:25;28.20;;;16.02;;
70825;SDS011;58446;41.490;22.098;2023-12-20T14:14:51;24.93;;;15.33;;